PWSweather.com
Personal Weather Stations
Station Observations
COONRAPIDS
Minneapolis, MN 55433

Minneapolis, MN 55433

Lat: 45.187721, Lon: -93.36828

Elevation: 898

Station Type: Davis Vantage Pro 2

High Low Average
Temperature 9.4°F-12.6°C -5.4°F-20.8°C 0.7°F-17.4°C
Dew Point -5.8°F-21.0°C -15.0°F-26.1°C -10.2°F-23.4°C
Winds 3.5 mph 5.6 kmh Calm Calm 1.0 mph NE1.6 kmh NE
Wind Gusts 8.1 mph13.0 kmh -- 2.0 mph3.2 kmh
Humidity 73% 47% 60%
Pressure 30.59 in1035.9 mb 30.47 in1031.8 mb -
Precipitation 0.00 in0.0 mm - -
Hour Temp Dew Point Humidity Winds Wind Gusts Pressure Precip Precip Rate Daily Precip Total
12:00 AM -1.3°F-18.5°C -13.2°F-25.1°C 56% Calm Calm 3.5 mph5.6 kmh 30.46 in1031.5 mb - 0.00 in0.0 mm 0.00 in0.0 mm
12:10 AM -1.5°F-18.6°C -13.4°F-25.2°C 56% 1.2 mph NNE1.9 kmh NNE 3.5 mph5.6 kmh 30.47 in1031.8 mb - 0.00 in0.0 mm 0.00 in0.0 mm
12:20 AM -1.7°F-18.7°C -13.6°F-25.3°C 56% Calm Calm 5.8 mph9.3 kmh 30.48 in1032.2 mb - 0.00 in0.0 mm 0.00 in0.0 mm
12:30 AM -1.9°F-18.8°C -13.4°F-25.2°C 57% 1.2 mph NNE1.9 kmh NNE 3.5 mph5.6 kmh 30.47 in1031.8 mb - 0.00 in0.0 mm 0.00 in0.0 mm
12:40 AM -1.9°F-18.8°C -13.4°F-25.2°C 57% 3.5 mph NE5.6 kmh NE 3.5 mph5.6 kmh 30.47 in1031.8 mb - 0.00 in0.0 mm 0.00 in0.0 mm
12:50 AM -1.8°F-18.8°C -13.3°F-25.2°C 57% 3.5 mph NNE5.6 kmh NNE 5.8 mph9.3 kmh 30.47 in1031.8 mb - 0.00 in0.0 mm 0.00 in0.0 mm
01:00 AM -1.8°F-18.8°C -13.7°F-25.4°C 56% 1.2 mph NNE1.9 kmh NNE 3.5 mph5.6 kmh 30.48 in1032.2 mb - 0.00 in0.0 mm 0.00 in0.0 mm
01:10 AM -1.8°F-18.8°C -13.7°F-25.4°C 56% 2.3 mph NNE3.7 kmh NNE 4.6 mph7.4 kmh 30.47 in1031.8 mb - 0.00 in0.0 mm 0.00 in0.0 mm
01:20 AM -1.9°F-18.8°C -13.8°F-25.4°C 56% 2.3 mph NE3.7 kmh NE 3.5 mph5.6 kmh 30.48 in1032.2 mb - 0.00 in0.0 mm 0.00 in0.0 mm
01:30 AM -1.9°F-18.8°C -13.8°F-25.4°C 56% 1.2 mph NE1.9 kmh NE 3.5 mph5.6 kmh 30.47 in1031.8 mb - 0.00 in0.0 mm 0.00 in0.0 mm
01:40 AM -1.8°F-18.8°C -13.4°F-25.2°C 57% Calm Calm 2.3 mph3.7 kmh 30.47 in1031.8 mb - 0.00 in0.0 mm 0.00 in0.0 mm
01:50 AM -1.7°F-18.7°C -13.6°F-25.3°C 56% 1.2 mph ENE1.9 kmh ENE 3.5 mph5.6 kmh 30.48 in1032.2 mb - 0.00 in0.0 mm 0.00 in0.0 mm
02:00 AM -1.7°F-18.7°C -13.6°F-25.3°C 56% Calm Calm 3.5 mph5.6 kmh 30.48 in1032.2 mb - 0.00 in0.0 mm 0.00 in0.0 mm
02:10 AM -1.7°F-18.7°C -13.6°F-25.3°C 56% 1.2 mph NE1.9 kmh NE 3.5 mph5.6 kmh 30.48 in1032.2 mb - 0.00 in0.0 mm 0.00 in0.0 mm
02:20 AM -1.8°F-18.8°C -13.7°F-25.4°C 56% 2.3 mph NNE3.7 kmh NNE 3.5 mph5.6 kmh 30.48 in1032.2 mb - 0.00 in0.0 mm 0.00 in0.0 mm
02:30 AM -2.0°F-18.9°C -13.9°F-25.5°C 56% 2.3 mph NE3.7 kmh NE 8.1 mph13.0 kmh 30.48 in1032.2 mb - 0.00 in0.0 mm 0.00 in0.0 mm
02:40 AM -2.2°F-19.0°C -14.1°F-25.6°C 56% 1.2 mph NE1.9 kmh NE 3.5 mph5.6 kmh 30.48 in1032.2 mb - 0.00 in0.0 mm 0.00 in0.0 mm
02:50 AM -2.3°F-19.1°C -14.2°F-25.7°C 56% 1.2 mph NE1.9 kmh NE 3.5 mph5.6 kmh 30.49 in1032.5 mb - 0.00 in0.0 mm 0.00 in0.0 mm
03:00 AM -2.4°F-19.1°C -13.9°F-25.5°C 57% Calm Calm 1.2 mph1.9 kmh 30.48 in1032.2 mb - 0.00 in0.0 mm 0.00 in0.0 mm
03:10 AM -2.4°F-19.1°C -13.9°F-25.5°C 57% 1.2 mph NE1.9 kmh NE 3.5 mph5.6 kmh 30.48 in1032.2 mb - 0.00 in0.0 mm 0.00 in0.0 mm
03:20 AM -2.6°F-19.2°C -14.1°F-25.6°C 57% 1.2 mph NE1.9 kmh NE 3.5 mph5.6 kmh 30.49 in1032.5 mb - 0.00 in0.0 mm 0.00 in0.0 mm
03:30 AM -2.8°F-19.3°C -14.6°F-25.9°C 56% Calm Calm 1.2 mph1.9 kmh 30.49 in1032.5 mb - 0.00 in0.0 mm 0.00 in0.0 mm
03:40 AM -2.9°F-19.4°C -14.4°F-25.8°C 57% Calm Calm -- 30.50 in1032.8 mb - 0.00 in0.0 mm 0.00 in0.0 mm
03:50 AM -3.1°F-19.5°C -14.2°F-25.7°C 58% Calm Calm -- 30.50 in1032.8 mb - 0.00 in0.0 mm 0.00 in0.0 mm
04:00 AM -3.3°F-19.6°C -14.4°F-25.8°C 58% Calm Calm 3.5 mph5.6 kmh 30.50 in1032.8 mb - 0.00 in0.0 mm 0.00 in0.0 mm
04:10 AM -3.5°F-19.7°C -15.0°F-26.1°C 57% Calm Calm -- 30.50 in1032.8 mb - 0.00 in0.0 mm 0.00 in0.0 mm
04:20 AM -3.5°F-19.7°C -14.7°F-25.9°C 58% Calm Calm 2.3 mph3.7 kmh 30.50 in1032.8 mb - 0.00 in0.0 mm 0.00 in0.0 mm
04:30 AM -3.8°F-19.9°C -14.5°F-25.8°C 59% 1.2 mph NNE1.9 kmh NNE 2.3 mph3.7 kmh 30.50 in1032.8 mb - 0.00 in0.0 mm 0.00 in0.0 mm
04:40 AM -3.9°F-19.9°C -14.6°F-25.9°C 59% Calm Calm 2.3 mph3.7 kmh 30.50 in1032.8 mb - 0.00 in0.0 mm 0.00 in0.0 mm
04:50 AM -4.0°F-20.0°C -14.7°F-25.9°C 59% Calm Calm -- 30.50 in1032.8 mb - 0.00 in0.0 mm 0.00 in0.0 mm
05:00 AM -4.1°F-20.1°C -14.8°F-26.0°C 59% Calm Calm -- 30.50 in1032.8 mb - 0.00 in0.0 mm 0.00 in0.0 mm
05:10 AM -4.3°F-20.2°C -15.0°F-26.1°C 59% Calm Calm -- 30.51 in1033.2 mb - 0.00 in0.0 mm 0.00 in0.0 mm
05:20 AM -4.4°F-20.2°C -14.8°F-26.0°C 60% Calm Calm -- 30.50 in1032.8 mb - 0.00 in0.0 mm 0.00 in0.0 mm
05:30 AM -4.5°F-20.3°C -14.9°F-26.1°C 60% 1.2 mph NNE1.9 kmh NNE 3.5 mph5.6 kmh 30.50 in1032.8 mb - 0.00 in0.0 mm 0.00 in0.0 mm
05:40 AM -4.6°F-20.3°C -14.7°F-25.9°C 61% Calm Calm -- 30.50 in1032.8 mb - 0.00 in0.0 mm 0.00 in0.0 mm
05:50 AM -4.8°F-20.4°C -14.5°F-25.8°C 62% Calm Calm -- 30.50 in1032.8 mb - 0.00 in0.0 mm 0.00 in0.0 mm
06:00 AM -4.9°F-20.5°C -14.6°F-25.9°C 62% Calm Calm 1.2 mph1.9 kmh 30.50 in1032.8 mb - 0.00 in0.0 mm 0.00 in0.0 mm
06:10 AM -5.0°F-20.6°C -14.7°F-25.9°C 62% Calm Calm -- 30.50 in1032.8 mb - 0.00 in0.0 mm 0.00 in0.0 mm
06:20 AM -5.2°F-20.7°C -14.9°F-26.1°C 62% 1.2 mph NE1.9 kmh NE 2.3 mph3.7 kmh 30.50 in1032.8 mb - 0.00 in0.0 mm 0.00 in0.0 mm
06:30 AM -5.2°F-20.7°C -14.9°F-26.1°C 62% 1.2 mph NE1.9 kmh NE 3.5 mph5.6 kmh 30.50 in1032.8 mb - 0.00 in0.0 mm 0.00 in0.0 mm
06:40 AM -5.2°F-20.7°C -14.6°F-25.9°C 63% 2.3 mph NE3.7 kmh NE 3.5 mph5.6 kmh 30.50 in1032.8 mb - 0.00 in0.0 mm 0.00 in0.0 mm
06:50 AM -5.2°F-20.7°C -14.6°F-25.9°C 63% Calm Calm 1.2 mph1.9 kmh 30.50 in1032.8 mb - 0.00 in0.0 mm 0.00 in0.0 mm
07:00 AM -5.2°F-20.7°C -14.3°F-25.7°C 64% Calm Calm 1.2 mph1.9 kmh 30.50 in1032.8 mb - 0.00 in0.0 mm 0.00 in0.0 mm
07:10 AM -5.3°F-20.7°C -14.4°F-25.8°C 64% Calm Calm 1.2 mph1.9 kmh 30.51 in1033.2 mb - 0.00 in0.0 mm 0.00 in0.0 mm
07:20 AM -5.3°F-20.7°C -14.4°F-25.8°C 64% 1.2 mph NE1.9 kmh NE 3.5 mph5.6 kmh 30.52 in1033.5 mb - 0.00 in0.0 mm 0.00 in0.0 mm
07:30 AM -5.4°F-20.8°C -14.5°F-25.8°C 64% 1.2 mph NNE1.9 kmh NNE 3.5 mph5.6 kmh 30.52 in1033.5 mb - 0.00 in0.0 mm 0.00 in0.0 mm
07:40 AM -5.4°F-20.8°C -14.5°F-25.8°C 64% Calm Calm -- 30.52 in1033.5 mb - 0.00 in0.0 mm 0.00 in0.0 mm
07:50 AM -5.3°F-20.7°C -14.1°F-25.6°C 65% 1.2 mph NE1.9 kmh NE 3.5 mph5.6 kmh 30.52 in1033.5 mb - 0.00 in0.0 mm 0.00 in0.0 mm
08:00 AM -5.3°F-20.7°C -14.0°F-25.6°C 65% 1.2 mph NE1.9 kmh NE 3.5 mph5.6 kmh 30.53 in1033.9 mb - 0.00 in0.0 mm 0.00 in0.0 mm
08:10 AM -5.3°F-20.7°C -14.1°F-25.6°C 65% 2.3 mph NE3.7 kmh NE 3.5 mph5.6 kmh 30.53 in1033.9 mb - 0.00 in0.0 mm 0.00 in0.0 mm
08:20 AM -5.2°F-20.7°C -13.7°F-25.4°C 66% Calm Calm 2.3 mph3.7 kmh 30.54 in1034.2 mb - 0.00 in0.0 mm 0.00 in0.0 mm
08:30 AM -5.1°F-20.6°C -13.6°F-25.3°C 66% Calm Calm 2.3 mph3.7 kmh 30.54 in1034.2 mb - 0.00 in0.0 mm 0.00 in0.0 mm
08:40 AM -5.2°F-20.7°C -13.7°F-25.4°C 66% Calm Calm 1.2 mph1.9 kmh 30.55 in1034.5 mb - 0.00 in0.0 mm 0.00 in0.0 mm
08:50 AM -5.2°F-20.7°C -13.7°F-25.4°C 66% 2.3 mph NE3.7 kmh NE 3.5 mph5.6 kmh 30.54 in1034.2 mb - 0.00 in0.0 mm 0.00 in0.0 mm
09:00 AM -5.3°F-20.7°C -13.7°F-25.4°C 66% 1.2 mph NE1.9 kmh NE 3.5 mph5.6 kmh 30.55 in1034.5 mb - 0.00 in0.0 mm 0.00 in0.0 mm
09:10 AM -5.4°F-20.8°C -13.8°F-25.4°C 66% 2.3 mph NE3.7 kmh NE 3.5 mph5.6 kmh 30.55 in1034.5 mb - 0.00 in0.0 mm 0.00 in0.0 mm
09:20 AM -5.3°F-20.7°C -13.5°F-25.3°C 67% 1.2 mph NE1.9 kmh NE 4.6 mph7.4 kmh 30.55 in1034.5 mb - 0.00 in0.0 mm 0.00 in0.0 mm
09:30 AM -5.1°F-20.6°C -13.3°F-25.2°C 67% 1.2 mph NE1.9 kmh NE 2.3 mph3.7 kmh 30.55 in1034.5 mb - 0.00 in0.0 mm 0.00 in0.0 mm
09:40 AM -5.1°F-20.6°C -13.5°F-25.3°C 66% 2.3 mph NE3.7 kmh NE 3.5 mph5.6 kmh 30.56 in1034.9 mb - 0.00 in0.0 mm 0.00 in0.0 mm
09:50 AM -4.8°F-20.4°C -13.3°F-25.2°C 66% 2.3 mph NE3.7 kmh NE 4.6 mph7.4 kmh 30.56 in1034.9 mb - 0.00 in0.0 mm 0.00 in0.0 mm
10:00 AM -4.1°F-20.1°C -12.6°F-24.8°C 66% 2.3 mph NE3.7 kmh NE 4.6 mph7.4 kmh 30.57 in1035.2 mb - 0.00 in0.0 mm 0.00 in0.0 mm
10:10 AM -3.3°F-19.6°C -12.2°F-24.6°C 65% 2.3 mph NE3.7 kmh NE 3.5 mph5.6 kmh 30.57 in1035.2 mb - 0.00 in0.0 mm 0.00 in0.0 mm
10:20 AM -2.5°F-19.2°C -11.7°F-24.3°C 64% 2.3 mph NE3.7 kmh NE 3.5 mph5.6 kmh 30.57 in1035.2 mb - 0.00 in0.0 mm 0.00 in0.0 mm
10:30 AM -2.1°F-18.9°C -11.6°F-24.2°C 63% Calm Calm 2.3 mph3.7 kmh 30.58 in1035.6 mb - 0.00 in0.0 mm 0.00 in0.0 mm
10:40 AM -1.8°F-18.8°C -11.7°F-24.3°C 62% 2.3 mph NE3.7 kmh NE 4.6 mph7.4 kmh 30.58 in1035.6 mb - 0.00 in0.0 mm 0.00 in0.0 mm
10:50 AM -1.8°F-18.8°C -11.4°F-24.1°C 63% 1.2 mph NE1.9 kmh NE 2.3 mph3.7 kmh 30.58 in1035.6 mb - 0.00 in0.0 mm 0.00 in0.0 mm
11:00 AM -1.3°F-18.5°C -10.9°F-23.8°C 63% 3.5 mph NE5.6 kmh NE 6.9 mph11.1 kmh 30.58 in1035.6 mb - 0.00 in0.0 mm 0.00 in0.0 mm
11:10 AM -1.0°F-18.3°C -10.9°F-23.8°C 62% 1.2 mph ENE1.9 kmh ENE 3.5 mph5.6 kmh 30.58 in1035.6 mb - 0.00 in0.0 mm 0.00 in0.0 mm
11:20 AM -0.8°F-18.2°C -10.7°F-23.7°C 62% 1.2 mph ENE1.9 kmh ENE 3.5 mph5.6 kmh 30.58 in1035.6 mb - 0.00 in0.0 mm 0.00 in0.0 mm
11:30 AM 0.0°F-17.8°C -10.0°F-23.3°C 62% 2.3 mph NE3.7 kmh NE 3.5 mph5.6 kmh 30.58 in1035.6 mb - 0.00 in0.0 mm 0.00 in0.0 mm
11:40 AM 0.5°F-17.5°C -9.5°F-23.1°C 62% 1.2 mph NE1.9 kmh NE 3.5 mph5.6 kmh 30.59 in1035.9 mb - 0.00 in0.0 mm 0.00 in0.0 mm
11:50 AM 0.8°F-17.3°C -9.5°F-23.1°C 61% 2.3 mph NE3.7 kmh NE 3.5 mph5.6 kmh 30.59 in1035.9 mb - 0.00 in0.0 mm 0.00 in0.0 mm
12:00 PM 0.8°F-17.3°C -9.5°F-23.1°C 61% 2.3 mph ENE3.7 kmh ENE 3.5 mph5.6 kmh 30.59 in1035.9 mb - 0.00 in0.0 mm 0.00 in0.0 mm
12:10 PM 1.1°F-17.2°C -9.2°F-22.9°C 61% 2.3 mph NNE3.7 kmh NNE 4.6 mph7.4 kmh 30.59 in1035.9 mb - 0.00 in0.0 mm 0.00 in0.0 mm
12:20 PM 1.9°F-16.7°C -8.8°F-22.7°C 60% 2.3 mph NE3.7 kmh NE 5.8 mph9.3 kmh 30.59 in1035.9 mb - 0.00 in0.0 mm 0.00 in0.0 mm
12:30 PM 2.6°F-16.3°C -8.5°F-22.5°C 59% Calm Calm -- 30.58 in1035.6 mb - 0.00 in0.0 mm 0.00 in0.0 mm
12:40 PM 3.1°F-16.1°C -8.4°F-22.4°C 58% 1.2 mph NNE1.9 kmh NNE 4.6 mph7.4 kmh 30.58 in1035.6 mb - 0.00 in0.0 mm 0.00 in0.0 mm
12:50 PM 4.2°F-15.4°C -7.4°F-21.9°C 58% Calm Calm -- 30.58 in1035.6 mb - 0.00 in0.0 mm 0.00 in0.0 mm
01:00 PM 4.5°F-15.3°C -7.7°F-22.1°C 56% 1.2 mph ENE1.9 kmh ENE 2.3 mph3.7 kmh 30.57 in1035.2 mb - 0.00 in0.0 mm 0.00 in0.0 mm
01:10 PM 5.1°F-14.9°C -7.6°F-22.0°C 55% Calm Calm -- 30.57 in1035.2 mb - 0.00 in0.0 mm 0.00 in0.0 mm
01:20 PM 5.6°F-14.7°C -7.1°F-21.7°C 55% Calm Calm -- 30.57 in1035.2 mb - 0.00 in0.0 mm 0.00 in0.0 mm
01:30 PM 5.5°F-14.7°C -7.6°F-22.0°C 54% Calm Calm 3.5 mph5.6 kmh 30.57 in1035.2 mb - 0.00 in0.0 mm 0.00 in0.0 mm
01:40 PM 5.9°F-14.5°C -6.8°F-21.6°C 55% Calm Calm -- 30.57 in1035.2 mb - 0.00 in0.0 mm 0.00 in0.0 mm
01:50 PM 6.3°F-14.3°C -6.8°F-21.6°C 54% 1.2 mph ENE1.9 kmh ENE 1.2 mph1.9 kmh 30.56 in1034.9 mb - 0.00 in0.0 mm 0.00 in0.0 mm
02:00 PM 6.6°F-14.1°C -6.5°F-21.4°C 54% Calm Calm -- 30.56 in1034.9 mb - 0.00 in0.0 mm 0.00 in0.0 mm
02:10 PM 7.0°F-13.9°C -6.1°F-21.2°C 54% Calm Calm -- 30.56 in1034.9 mb - 0.00 in0.0 mm 0.00 in0.0 mm
02:20 PM 7.2°F-13.8°C -6.8°F-21.6°C 52% Calm Calm -- 30.55 in1034.5 mb - 0.00 in0.0 mm 0.00 in0.0 mm
02:30 PM 7.4°F-13.7°C -5.8°F-21.0°C 54% Calm Calm 1.2 mph1.9 kmh 30.55 in1034.5 mb - 0.00 in0.0 mm 0.00 in0.0 mm
02:40 PM 7.9°F-13.4°C -6.1°F-21.2°C 52% 1.2 mph NE1.9 kmh NE 3.5 mph5.6 kmh 30.55 in1034.5 mb - 0.00 in0.0 mm 0.00 in0.0 mm
02:50 PM 8.1°F-13.3°C -6.3°F-21.3°C 51% Calm Calm -- 30.55 in1034.5 mb - 0.00 in0.0 mm 0.00 in0.0 mm
03:00 PM 8.4°F-13.1°C -6.0°F-21.1°C 51% 1.2 mph NE1.9 kmh NE -- 30.55 in1034.5 mb - 0.00 in0.0 mm 0.00 in0.0 mm
03:10 PM 8.6°F-13.0°C -5.9°F-21.1°C 51% Calm Calm -- 30.55 in1034.5 mb - 0.00 in0.0 mm 0.00 in0.0 mm
03:20 PM 8.6°F-13.0°C -6.3°F-21.3°C 50% Calm Calm -- 30.55 in1034.5 mb - 0.00 in0.0 mm 0.00 in0.0 mm
03:30 PM 8.6°F-13.0°C -6.2°F-21.2°C 50% Calm Calm 1.2 mph1.9 kmh 30.55 in1034.5 mb - 0.00 in0.0 mm 0.00 in0.0 mm
03:40 PM 8.8°F-12.9°C -6.1°F-21.2°C 50% Calm Calm 1.2 mph1.9 kmh 30.55 in1034.5 mb - 0.00 in0.0 mm 0.00 in0.0 mm
03:50 PM 9.0°F-12.8°C -6.3°F-21.3°C 49% Calm Calm -- 30.56 in1034.9 mb - 0.00 in0.0 mm 0.00 in0.0 mm
04:00 PM 9.3°F-12.6°C -6.5°F-21.4°C 48% Calm Calm -- 30.55 in1034.5 mb - 0.00 in0.0 mm 0.00 in0.0 mm
04:10 PM 9.4°F-12.6°C -6.4°F-21.3°C 48% Calm Calm -- 30.56 in1034.9 mb - 0.00 in0.0 mm 0.00 in0.0 mm
04:20 PM 9.2°F-12.7°C -7.0°F-21.7°C 47% 1.2 mph NE1.9 kmh NE -- 30.56 in1034.9 mb - 0.00 in0.0 mm 0.00 in0.0 mm
04:30 PM 8.9°F-12.8°C -6.8°F-21.6°C 48% Calm Calm -- 30.55 in1034.5 mb - 0.00 in0.0 mm 0.00 in0.0 mm
04:40 PM 8.5°F-13.1°C -7.2°F-21.8°C 48% Calm Calm 1.2 mph1.9 kmh 30.55 in1034.5 mb - 0.00 in0.0 mm 0.00 in0.0 mm
04:50 PM 8.5°F-13.1°C -7.2°F-21.8°C 48% 1.2 mph NE1.9 kmh NE -- 30.55 in1034.5 mb - 0.00 in0.0 mm 0.00 in0.0 mm
05:00 PM 8.2°F-13.2°C -7.0°F-21.7°C 49% 1.2 mph NE1.9 kmh NE 1.2 mph1.9 kmh 30.55 in1034.5 mb - 0.00 in0.0 mm 0.00 in0.0 mm
05:10 PM 8.1°F-13.3°C -7.2°F-21.8°C 49% Calm Calm 2.3 mph3.7 kmh 30.55 in1034.5 mb - 0.00 in0.0 mm 0.00 in0.0 mm
05:20 PM 7.9°F-13.4°C -7.3°F-21.8°C 49% Calm Calm 1.2 mph1.9 kmh 30.55 in1034.5 mb - 0.00 in0.0 mm 0.00 in0.0 mm
05:30 PM 7.7°F-13.5°C -7.1°F-21.7°C 50% 1.2 mph ENE1.9 kmh ENE 3.5 mph5.6 kmh 30.55 in1034.5 mb - 0.00 in0.0 mm 0.00 in0.0 mm
05:40 PM 7.5°F-13.6°C -7.3°F-21.8°C 50% Calm Calm -- 30.55 in1034.5 mb - 0.00 in0.0 mm 0.00 in0.0 mm
05:50 PM 7.2°F-13.8°C -6.8°F-21.6°C 52% Calm Calm 3.5 mph5.6 kmh 30.55 in1034.5 mb - 0.00 in0.0 mm 0.00 in0.0 mm
06:00 PM 6.9°F-13.9°C -7.4°F-21.9°C 51% Calm Calm -- 30.55 in1034.5 mb - 0.00 in0.0 mm 0.00 in0.0 mm
06:10 PM 6.5°F-14.2°C -7.4°F-21.9°C 52% Calm Calm -- 30.55 in1034.5 mb - 0.00 in0.0 mm 0.00 in0.0 mm
06:20 PM 6.1°F-14.4°C -7.4°F-21.9°C 53% Calm Calm 2.3 mph3.7 kmh 30.55 in1034.5 mb - 0.00 in0.0 mm 0.00 in0.0 mm
06:30 PM 5.9°F-14.5°C -7.2°F-21.8°C 54% Calm Calm -- 30.55 in1034.5 mb - 0.00 in0.0 mm 0.00 in0.0 mm
06:40 PM 5.7°F-14.6°C -7.0°F-21.7°C 55% Calm Calm -- 30.55 in1034.5 mb - 0.00 in0.0 mm 0.00 in0.0 mm
06:50 PM 5.4°F-14.8°C -7.3°F-21.8°C 55% Calm Calm -- 30.55 in1034.5 mb - 0.00 in0.0 mm 0.00 in0.0 mm
07:00 PM 5.1°F-14.9°C -7.2°F-21.8°C 56% Calm Calm -- 30.55 in1034.5 mb - 0.00 in0.0 mm 0.00 in0.0 mm
07:10 PM 5.0°F-15.0°C -6.9°F-21.6°C 57% Calm Calm 1.2 mph1.9 kmh 30.56 in1034.9 mb - 0.00 in0.0 mm 0.00 in0.0 mm
07:20 PM 4.6°F-15.2°C -7.3°F-21.8°C 57% Calm Calm -- 30.57 in1035.2 mb - 0.00 in0.0 mm 0.00 in0.0 mm
07:30 PM 4.1°F-15.5°C -7.4°F-21.9°C 58% Calm Calm -- 30.57 in1035.2 mb - 0.00 in0.0 mm 0.00 in0.0 mm
07:40 PM 3.7°F-15.7°C -7.5°F-21.9°C 59% Calm Calm 3.5 mph5.6 kmh 30.57 in1035.2 mb - 0.00 in0.0 mm 0.00 in0.0 mm
07:50 PM 3.5°F-15.8°C -7.3°F-21.8°C 60% Calm Calm -- 30.57 in1035.2 mb - 0.00 in0.0 mm 0.00 in0.0 mm
08:00 PM 3.2°F-16.0°C -7.6°F-22.0°C 60% Calm Calm -- 30.57 in1035.2 mb - 0.00 in0.0 mm 0.00 in0.0 mm
08:10 PM 2.9°F-16.2°C -7.5°F-21.9°C 61% Calm Calm -- 30.57 in1035.2 mb - 0.00 in0.0 mm 0.00 in0.0 mm
08:20 PM 2.7°F-16.3°C -7.7°F-22.1°C 61% Calm Calm 1.2 mph1.9 kmh 30.57 in1035.2 mb - 0.00 in0.0 mm 0.00 in0.0 mm
08:30 PM 2.4°F-16.4°C -7.7°F-22.1°C 62% Calm Calm -- 30.56 in1034.9 mb - 0.00 in0.0 mm 0.00 in0.0 mm
08:40 PM 2.3°F-16.5°C -7.4°F-21.9°C 63% Calm Calm -- 30.57 in1035.2 mb - 0.00 in0.0 mm 0.00 in0.0 mm
08:50 PM 2.2°F-16.6°C -7.5°F-21.9°C 63% Calm Calm -- 30.57 in1035.2 mb - 0.00 in0.0 mm 0.00 in0.0 mm
09:00 PM 2.2°F-16.6°C -7.5°F-21.9°C 63% Calm Calm -- 30.56 in1034.9 mb - 0.00 in0.0 mm 0.00 in0.0 mm
09:10 PM 2.1°F-16.6°C -7.6°F-22.0°C 63% Calm Calm -- 30.55 in1034.5 mb - 0.00 in0.0 mm 0.00 in0.0 mm
09:20 PM 2.0°F-16.7°C -7.7°F-22.1°C 63% Calm Calm -- 30.55 in1034.5 mb - 0.00 in0.0 mm 0.00 in0.0 mm
09:30 PM 1.8°F-16.8°C -7.9°F-22.2°C 63% Calm Calm -- 30.55 in1034.5 mb - 0.00 in0.0 mm 0.00 in0.0 mm
09:40 PM 1.6°F-16.9°C -7.8°F-22.1°C 64% Calm Calm -- 30.55 in1034.5 mb - 0.00 in0.0 mm 0.00 in0.0 mm
09:50 PM 1.3°F-17.1°C -8.1°F-22.3°C 64% Calm Calm -- 30.55 in1034.5 mb - 0.00 in0.0 mm 0.00 in0.0 mm
10:00 PM 1.1°F-17.2°C -7.9°F-22.2°C 65% Calm Calm -- 30.55 in1034.5 mb - 0.00 in0.0 mm 0.00 in0.0 mm
10:10 PM 0.9°F-17.3°C -7.8°F-22.1°C 66% Calm Calm -- 30.54 in1034.2 mb - 0.00 in0.0 mm 0.00 in0.0 mm
10:20 PM 0.6°F-17.4°C -8.1°F-22.3°C 66% Calm Calm -- 30.53 in1033.9 mb - 0.00 in0.0 mm 0.00 in0.0 mm
10:30 PM 0.4°F-17.6°C -7.9°F-22.2°C 67% Calm Calm -- 30.54 in1034.2 mb - 0.00 in0.0 mm 0.00 in0.0 mm
10:40 PM 0.3°F-17.6°C -7.8°F-22.1°C 68% Calm Calm -- 30.53 in1033.9 mb - 0.00 in0.0 mm 0.00 in0.0 mm
10:50 PM 0.2°F-17.7°C -8.2°F-22.3°C 67% Calm Calm -- 30.54 in1034.2 mb - 0.00 in0.0 mm 0.00 in0.0 mm
11:00 PM 0.3°F-17.6°C -7.8°F-22.1°C 68% Calm Calm -- 30.54 in1034.2 mb - 0.00 in0.0 mm 0.00 in0.0 mm
11:10 PM 0.1°F-17.7°C -7.9°F-22.2°C 68% Calm Calm -- 30.54 in1034.2 mb - 0.00 in0.0 mm 0.00 in0.0 mm
11:20 PM -0.1°F-17.8°C -8.2°F-22.3°C 68% Calm Calm -- 30.55 in1034.5 mb - 0.00 in0.0 mm 0.00 in0.0 mm
11:30 PM -0.3°F-17.9°C -8.1°F-22.3°C 69% Calm Calm -- 30.54 in1034.2 mb - 0.00 in0.0 mm 0.00 in0.0 mm
11:40 PM -0.5°F-18.1°C -8.3°F-22.4°C 69% Calm Calm -- 30.54 in1034.2 mb - 0.00 in0.0 mm 0.00 in0.0 mm
11:50 PM -0.8°F-18.2°C -8.2°F-22.3°C 70% Calm Calm -- 30.54 in1034.2 mb - 0.00 in0.0 mm 0.00 in0.0 mm